Time;durP1;ratioP1;P1;durP2;ratioP2;P2;SDS_P1;SDS_P2;PMS_P1;PMS_P2;Temp;Humidity;BMP_temperature;BMP_pressure;BME280_temperature;BME280_humidity;BME280_pressure;Samples;Min_cycle;Max_cycle;Signal;HPM_P1;HPM_P2
2023/03/16 00:01:48;;;;;;;9.43;8.33;;;;;;;10.77;62.60;98388.97;5051513;28;20251;-68
2023/03/16 00:04:15;;;;;;;7.80;7.10;;;;;;;10.70;63.22;98388.25;5051881;28;20255;-68
2023/03/16 00:06:42;;;;;;;8.57;7.83;;;;;;;10.71;62.78;98389.88;5051836;28;20197;-70
2023/03/16 00:09:08;;;;;;;7.97;7.27;;;;;;;10.67;63.45;98394.81;5058469;28;20188;-69
2023/03/16 00:11:35;;;;;;;9.57;8.07;;;;;;;10.66;63.98;98387.91;5071540;28;20196;-69
2023/03/16 00:14:03;;;;;;;8.23;7.43;;;;;;;10.65;64.73;98394.25;5071888;28;20196;-69
2023/03/16 00:16:29;;;;;;;7.83;7.23;;;;;;;10.60;65.14;98395.94;5071771;28;20220;-69
2023/03/16 00:18:58;;;;;;;8.70;6.90;;;;;;;10.57;65.70;98397.22;5058340;28;20247;-69
2023/03/16 00:21:24;;;;;;;6.83;6.17;;;;;;;10.54;66.35;98396.84;5051767;28;20188;-68
2023/03/16 00:23:52;;;;;;;6.83;6.33;;;;;;;10.58;66.88;98398.03;5051640;28;20192;-69
2023/03/16 00:26:19;;;;;;;7.47;6.50;;;;;;;10.66;66.96;98395.06;5051921;28;20233;-68
2023/03/16 00:28:45;;;;;;;6.50;5.90;;;;;;;10.65;67.09;98393.44;5051676;28;20210;-69
2023/03/16 00:31:13;;;;;;;7.17;6.57;;;;;;;10.59;67.85;98387.16;5048393;28;20634;-70
2023/03/16 00:33:41;;;;;;;7.00;6.40;;;;;;;10.58;68.37;98387.41;5048253;28;20338;-71
2023/03/16 00:36:10;;;;;;;6.37;5.97;;;;;;;10.64;68.55;98391.81;5048410;28;20274;-69
2023/03/16 00:38:39;;;;;;;6.93;6.43;;;;;;;10.58;68.87;98392.72;5057325;28;20188;-68
2023/03/16 00:41:08;;;;;;;6.20;5.70;;;;;;;10.63;68.72;98395.50;5071196;28;20196;-68
2023/03/16 00:43:39;;;;;;;7.23;6.53;;;;;;;10.56;69.51;98400.06;5071497;28;20195;-68
2023/03/16 00:46:06;;;;;;;5.90;5.53;;;;;;;10.59;69.19;98394.34;5069179;28;20195;-68
2023/03/16 00:48:34;;;;;;;10.40;6.33;;;;;;;10.63;69.52;98401.59;5051185;28;20255;-68
2023/03/16 00:51:01;;;;;;;6.40;5.87;;;;;;;10.66;69.39;98401.16;5052930;28;20193;-68
2023/03/16 00:53:30;;;;;;;6.33;5.93;;;;;;;10.65;69.45;98414.66;5055500;28;20193;-68
2023/03/16 00:55:57;;;;;;;6.23;5.70;;;;;;;10.65;70.24;98406.69;5068355;28;20245;-68
2023/03/16 00:58:24;;;;;;;6.30;5.70;;;;;;;10.60;70.26;98414.53;5069699;28;20564;-68
2023/03/16 01:00:52;;;;;;;6.47;6.07;;;;;;;10.48;70.98;98409.16;5055222;28;20270;-68
2023/03/16 01:03:19;;;;;;;5.57;5.27;;;;;;;10.57;70.91;98417.63;5055069;28;20192;-68
2023/03/16 01:05:46;;;;;;;6.50;5.90;;;;;;;10.56;71.79;98419.47;5065586;28;20262;-69
2023/03/16 01:08:12;;;;;;;5.90;5.50;;;;;;;10.58;71.75;98421.91;5074482;28;20253;-68
2023/03/16 01:10:40;;;;;;;6.17;5.77;;;;;;;10.63;71.97;98422.06;5075054;28;20249;-68
2023/03/16 01:13:07;;;;;;;6.70;6.20;;;;;;;10.64;71.84;98424.50;5074522;28;20742;-68
2023/03/16 01:15:34;;;;;;;6.67;6.20;;;;;;;10.57;72.11;98417.63;5064975;28;20596;-68
2023/03/16 01:18:01;;;;;;;6.87;6.37;;;;;;;10.54;72.58;98426.06;5054666;28;20198;-68
2023/03/16 01:20:28;;;;;;;6.97;6.43;;;;;;;10.57;72.19;98425.59;5054846;28;20199;-68
2023/03/16 01:22:55;;;;;;;7.20;6.60;;;;;;;10.60;72.79;98428.63;5054658;28;20219;-68
2023/03/16 01:25:23;;;;;;;7.10;6.47;;;;;;;10.62;72.84;98441.69;5055659;28;20220;-69
2023/03/16 01:27:52;;;;;;;7.87;6.33;;;;;;;10.53;73.83;98437.69;5072015;28;20281;-69
2023/03/16 01:30:19;;;;;;;6.60;6.03;;;;;;;10.49;74.04;98447.94;5075012;28;20193;-69
2023/03/16 01:32:46;;;;;;;6.77;6.17;;;;;;;10.57;73.74;98438.88;5074150;28;20195;-69
2023/03/16 01:35:13;;;;;;;11.10;6.43;;;;;;;10.63;74.32;98453.94;5062055;28;20616;-69
2023/03/16 01:37:40;;;;;;;6.47;5.87;;;;;;;10.73;73.61;98448.91;5054402;28;20196;-69
2023/03/16 01:40:09;;;;;;;7.20;5.40;;;;;;;10.65;73.28;98443.88;5054404;28;20194;-68
2023/03/16 01:42:45;;;;;;;5.63;4.93;;;;;;;10.46;73.74;98452.91;5054308;28;20202;-69
2023/03/16 01:45:45;;;;;;;3.70;3.50;;;;;;;10.25;72.69;98453.31;5054443;28;20186;-68
2023/03/16 01:48:14;;;;;;;3.63;3.33;;;;;;;10.08;73.01;98445.09;5072970;28;20265;-69
2023/03/16 01:50:42;;;;;;;4.57;3.00;;;;;;;10.09;72.25;98453.88;5073903;28;20657;-68
2023/03/16 01:53:09;;;;;;;4.63;3.17;;;;;;;9.97;71.99;98456.38;5074376;28;20593;-68
2023/03/16 01:55:36;;;;;;;3.20;2.60;;;;;;;9.83;71.80;98462.00;5072411;28;20219;-68
2023/03/16 01:58:03;;;;;;;4.87;2.60;;;;;;;9.72;71.79;98462.72;5071186;28;20192;-69
2023/03/16 02:00:31;;;;;;;3.30;2.40;;;;;;;9.63;72.52;98466.63;5054180;28;20267;-69
2023/03/16 02:03:03;;;;;;;10.97;2.57;;;;;;;9.61;71.99;98463.41;5053677;28;20196;-69
2023/03/16 02:05:35;;;;;;;8.70;2.70;;;;;;;9.47;73.26;98475.09;5064204;28;20195;-69
2023/03/16 02:08:03;;;;;;;4.87;3.00;;;;;;;9.38;72.83;98468.44;5073579;28;20224;-69
2023/03/16 02:10:30;;;;;;;18.97;4.07;;;;;;;9.42;72.82;98480.25;5073802;28;20257;-68
2023/03/16 02:12:58;;;;;;;2.80;2.70;;;;;;;9.43;73.31;98487.16;5059136;28;20224;-70
2023/03/16 02:15:26;;;;;;;2.90;2.70;;;;;;;9.43;73.24;98481.84;5052726;28;20192;-68
2023/03/16 02:17:53;;;;;;;2.90;2.80;;;;;;;9.46;73.14;98486.75;5053218;28;20676;-69
2023/03/16 02:20:30;;;;;;;4.87;2.70;;;;;;;9.42;73.51;98494.31;5053287;28;20192;-68
2023/03/16 02:22:58;;;;;;;2.87;2.77;;;;;;;9.45;74.02;98487.78;5061503;28;20625;-68
2023/03/16 02:25:29;;;;;;;3.60;3.30;;;;;;;9.49;74.46;98494.28;5073520;28;20188;-68
2023/03/16 02:28:04;;;;;;;2.90;2.80;;;;;;;9.43;73.94;98497.75;5073168;28;20188;-68
2023/03/16 02:30:33;;;;;;;2.90;2.80;;;;;;;9.44;74.80;98492.25;5073564;28;20187;-68
2023/03/16 02:33:00;;;;;;;2.80;2.60;;;;;;;9.37;74.94;98495.97;5063584;28;20193;-68
2023/03/16 02:35:27;;;;;;;2.47;2.37;;;;;;;9.39;75.40;98497.38;5053049;28;20284;-68
2023/03/16 02:37:53;;;;;;;2.70;2.60;;;;;;;9.25;75.17;98502.97;5053207;28;20188;-68
2023/03/16 02:40:23;;;;;;;2.77;2.67;;;;;;;9.20;75.66;98502.78;5052884;28;20223;-68
2023/03/16 02:42:55;;;;;;;2.63;2.40;;;;;;;9.31;75.07;98507.44;5059463;28;20223;-68
2023/03/16 02:45:25;;;;;;;2.63;2.53;;;;;;;9.19;74.50;98501.97;5072819;28;20249;-68
2023/03/16 02:47:54;;;;;;;2.30;2.10;;;;;;;9.11;74.86;98504.06;5072743;28;20196;-68
2023/03/16 02:50:21;;;;;;;3.70;3.37;;;;;;;9.15;74.68;98510.56;5071595;28;20579;-68
2023/03/16 02:52:48;;;;;;;2.77;2.67;;;;;;;9.26;73.60;98512.53;5053042;28;20251;-68
2023/03/16 02:55:15;;;;;;;2.63;2.53;;;;;;;9.19;74.31;98514.41;5052971;28;20199;-68
2023/03/16 02:57:41;;;;;;;2.70;2.50;;;;;;;9.18;73.94;98526.03;5052762;28;20697;-68
2023/03/16 03:00:13;;;;;;;2.63;2.47;;;;;;;9.19;73.60;98532.97;5052778;28;20220;-68
2023/03/16 03:02:39;;;;;;;2.77;2.53;;;;;;;9.18;72.97;98531.31;5052524;28;20271;-69
2023/03/16 03:05:08;;;;;;;2.53;2.43;;;;;;;9.18;72.31;98541.91;5052889;28;20192;-68
2023/03/16 03:07:36;;;;;;;2.73;2.63;;;;;;;9.25;72.07;98542.72;5052467;28;20692;-68
2023/03/16 03:10:04;;;;;;;2.77;2.57;;;;;;;9.07;72.71;98543.38;5052409;28;20199;-68
2023/03/16 03:12:31;;;;;;;4.43;2.63;;;;;;;8.99;72.85;98554.22;5052801;28;20197;-67
2023/03/16 03:14:58;;;;;;;3.10;3.00;;;;;;;8.87;72.78;98555.06;5051805;28;20192;-68
2023/03/16 03:17:28;;;;;;;3.10;2.83;;;;;;;8.92;72.26;98563.22;5052256;28;20286;-68
2023/03/16 03:19:56;;;;;;;3.33;3.00;;;;;;;8.86;72.07;98564.84;5060008;28;20192;-68
2023/03/16 03:22:25;;;;;;;2.70;2.60;;;;;;;8.87;72.24;98565.66;5072073;28;20204;-68
2023/03/16 03:24:52;;;;;;;3.13;2.90;;;;;;;8.87;72.56;98561.16;5072130;28;20230;-68
2023/03/16 03:27:19;;;;;;;5.03;2.30;;;;;;;8.85;72.15;98571.16;5071913;28;20202;-68
2023/03/16 03:29:46;;;;;;;4.67;3.00;;;;;;;8.73;72.43;98572.00;5064415;28;20203;-68
2023/03/16 03:32:13;;;;;;;2.50;2.40;;;;;;;8.72;73.00;98581.78;5052427;28;20192;-68
2023/03/16 03:34:41;;;;;;;2.90;2.80;;;;;;;8.67;72.98;98572.84;5052109;28;20203;-68
2023/03/16 03:37:08;;;;;;;3.03;2.83;;;;;;;8.55;74.01;98582.41;5051939;28;20666;-68
2023/03/16 03:39:36;;;;;;;2.63;2.53;;;;;;;8.67;73.21;98580.78;5056415;28;20192;-68
2023/03/16 03:42:02;;;;;;;2.30;2.20;;;;;;;8.64;73.15;98581.19;5066577;28;20189;-68
2023/03/16 03:44:33;;;;;;;2.70;2.60;;;;;;;8.57;73.39;98575.06;5071171;28;20695;-68
2023/03/16 03:47:00;;;;;;;2.77;2.67;;;;;;;8.57;73.26;98585.66;5071595;28;20202;-68
2023/03/16 03:49:26;;;;;;;2.33;2.23;;;;;;;8.73;73.08;98586.06;5071990;28;20249;-68
2023/03/16 03:51:54;;;;;;;2.97;2.70;;;;;;;8.47;73.75;98595.84;5066324;28;20184;-68
2023/03/16 03:54:21;;;;;;;2.57;2.47;;;;;;;8.46;73.60;98596.88;5051672;28;20618;-68
2023/03/16 03:56:49;;;;;;;3.03;2.47;;;;;;;8.37;73.63;98595.47;5051337;28;20235;-67
2023/03/16 03:59:16;;;;;;;2.60;2.50;;;;;;;8.28;74.37;98591.38;5050966;28;20239;-68
2023/03/16 04:01:42;;;;;;;35.80;5.63;;;;;;;8.29;73.83;98593.81;5051922;28;20193;-69
2023/03/16 04:04:09;;;;;;;3.43;2.57;;;;;;;8.35;74.05;98597.50;5051817;28;20248;-68
2023/03/16 04:06:36;;;;;;;2.27;2.17;;;;;;;8.31;73.90;98599.72;5051408;28;20196;-68
2023/03/16 04:09:04;;;;;;;5.23;2.80;;;;;;;8.36;73.80;98601.75;5051294;28;20223;-68
2023/03/16 04:11:31;;;;;;;6.03;3.00;;;;;;;8.21;73.76;98601.16;5066116;28;20275;-68
2023/03/16 04:13:59;;;;;;;9.03;2.80;;;;;;;8.16;74.10;98598.25;5071361;28;20183;-68
2023/03/16 04:16:26;;;;;;;9.90;3.27;;;;;;;8.03;73.70;98608.81;5071673;28;20283;-69
2023/03/16 04:18:53;;;;;;;3.93;2.70;;;;;;;7.98;74.40;98600.69;5071112;28;20559;-68
2023/03/16 04:21:20;;;;;;;13.07;3.27;;;;;;;7.95;73.69;98603.72;5060898;28;20665;-68
2023/03/16 04:23:48;;;;;;;4.83;2.37;;;;;;;8.00;74.38;98612.69;5069660;28;20209;-66
2023/03/16 04:26:16;;;;;;;3.60;2.60;;;;;;;8.02;73.94;98609.84;5073523;28;20246;-72
2023/03/16 04:28:43;;;;;;;2.27;2.17;;;;;;;7.98;74.13;98625.31;5075765;28;20278;-72
2023/03/16 04:31:11;;;;;;;3.20;2.40;;;;;;;8.02;74.02;98634.47;5074942;28;20200;-68
2023/03/16 04:33:41;;;;;;;2.40;2.30;;;;;;;7.90;73.99;98632.59;5075323;28;20237;-69
2023/03/16 04:36:08;;;;;;;3.20;2.23;;;;;;;7.90;73.71;98632.59;5075404;28;20194;-69
2023/03/16 04:38:36;;;;;;;6.70;2.40;;;;;;;7.86;74.06;98642.75;5075563;28;20279;-70
2023/03/16 04:41:04;;;;;;;2.40;2.30;;;;;;;7.85;73.57;98638.50;5063852;28;20196;-72
2023/03/16 04:43:33;;;;;;;2.43;2.17;;;;;;;7.86;74.08;98640.13;5054860;28;20193;-71
2023/03/16 04:46:00;;;;;;;12.47;2.63;;;;;;;7.81;73.54;98641.72;5055269;28;20201;-71
2023/03/16 04:48:28;;;;;;;35.10;3.67;;;;;;;7.87;73.20;98648.84;5054935;28;20618;-73
2023/03/16 04:50:55;;;;;;;3.20;2.20;;;;;;;7.74;72.72;98664.66;5064384;28;20215;-71
2023/03/16 04:53:22;;;;;;;3.90;2.57;;;;;;;7.90;72.22;98651.09;5074747;28;20192;-71
2023/03/16 04:55:48;;;;;;;6.67;2.37;;;;;;;7.87;72.30;98654.13;5074935;28;20260;-72
2023/03/16 04:58:15;;;;;;;2.20;2.10;;;;;;;7.88;72.26;98666.34;5070484;28;20209;-72
2023/03/16 05:00:42;;;;;;;2.47;2.13;;;;;;;7.90;72.25;98673.06;5054797;28;20192;-73
2023/03/16 05:03:10;;;;;;;2.80;2.60;;;;;;;7.86;71.85;98671.00;5054473;28;20192;-73
2023/03/16 05:05:39;;;;;;;6.67;2.30;;;;;;;7.73;72.17;98677.09;5054363;28;20287;-72
2023/03/16 05:08:06;;;;;;;4.40;1.90;;;;;;;7.78;71.78;98690.53;5059255;28;20196;-72
2023/03/16 05:10:33;;;;;;;3.30;2.10;;;;;;;7.74;71.63;98689.28;5062699;28;20258;-75
2023/03/16 05:13:00;;;;;;;1.80;1.70;;;;;;;7.82;70.48;98696.22;5053447;28;20192;-70
2023/03/16 05:15:28;;;;;;;8.90;2.03;;;;;;;7.69;70.84;98696.16;5053187;28;20201;-71
2023/03/16 05:17:55;;;;;;;20.73;2.40;;;;;;;7.72;71.37;98695.78;5052451;28;20290;-73
2023/03/16 05:20:23;;;;;;;9.20;2.93;;;;;;;7.87;70.80;98709.66;5050369;28;20196;-71
2023/03/16 05:22:51;;;;;;;3.00;2.30;;;;;;;7.91;70.85;98716.19;5052208;28;20196;-72
2023/03/16 05:25:19;;;;;;;7.83;2.30;;;;;;;7.92;70.04;98718.63;5051450;28;20196;-72
2023/03/16 05:27:47;;;;;;;1.60;1.60;;;;;;;7.92;70.16;98717.81;5051956;28;20193;-73
2023/03/16 05:30:16;;;;;;;5.83;1.77;;;;;;;7.93;70.45;98727.38;5050874;28;20667;-71
2023/03/16 05:32:43;;;;;;;1.70;1.60;;;;;;;7.82;70.05;98733.22;5050395;28;20667;-72
2023/03/16 05:35:12;;;;;;;3.03;1.90;;;;;;;7.74;71.13;98736.03;5049304;28;20213;-72
2023/03/16 05:37:39;;;;;;;3.10;1.47;;;;;;;7.74;70.77;98718.34;5059046;28;20299;-73
2023/03/16 05:40:15;;;;;;;1.97;1.87;;;;;;;7.90;70.63;98741.00;5069653;28;20246;-72
2023/03/16 05:42:43;;;;;;;2.30;2.17;;;;;;;7.92;70.95;98739.78;5062428;28;20267;-72
2023/03/16 05:45:10;;;;;;;2.70;2.50;;;;;;;7.92;70.48;98745.06;5052203;28;20250;-70
2023/03/16 05:47:37;;;;;;;2.10;2.00;;;;;;;8.01;70.47;98748.38;5057299;28;20197;-71
2023/03/16 05:50:07;;;;;;;1.30;1.30;;;;;;;7.97;69.34;98753.22;5072194;28;20245;-72
2023/03/16 05:52:35;;;;;;;1.40;1.30;;;;;;;7.98;70.08;98754.03;5054250;28;21102;-72
2023/03/16 05:55:02;;;;;;;4.03;3.33;;;;;;;7.97;69.48;98757.72;5052159;28;20208;-67
2023/03/16 05:57:30;;;;;;;2.60;2.50;;;;;;;7.85;69.64;98754.00;5049171;28;20348;-72
2023/03/16 05:59:57;;;;;;;3.37;2.00;;;;;;;7.86;69.64;98760.91;5050677;28;20224;-70
2023/03/16 06:02:25;;;;;;;1.67;1.57;;;;;;;7.80;69.53;98772.28;5051748;28;20672;-72
2023/03/16 06:04:52;;;;;;;3.10;1.93;;;;;;;7.85;68.95;98772.50;5052522;28;20252;-69
2023/03/16 06:07:19;;;;;;;8.67;2.30;;;;;;;7.87;69.07;98773.09;5052064;28;20203;-69
2023/03/16 06:09:45;;;;;;;6.10;2.27;;;;;;;7.88;68.64;98785.34;5053048;28;20200;-68
2023/03/16 06:12:13;;;;;;;4.00;2.10;;;;;;;7.92;68.13;98779.44;5052973;28;20216;-69
2023/03/16 06:14:41;;;;;;;3.07;2.00;;;;;;;7.88;68.10;98793.25;5052218;28;20195;-69
2023/03/16 06:17:08;;;;;;;47.57;4.23;;;;;;;7.89;67.78;98798.34;5055517;28;20729;-73
2023/03/16 06:19:34;;;;;;;3.40;1.60;;;;;;;7.79;68.14;98783.84;5051748;28;20212;-72
2023/03/16 06:22:01;;;;;;;25.20;2.57;;;;;;;7.89;67.83;98792.25;5051783;28;20241;-70
2023/03/16 06:24:28;;;;;;;2.07;1.87;;;;;;;7.79;67.74;98789.13;5051573;28;20246;-70
2023/03/16 06:26:54;;;;;;;2.97;2.77;;;;;;;7.84;67.65;98800.75;5066561;28;20203;-70
2023/03/16 06:29:21;;;;;;;2.50;2.03;;;;;;;7.85;67.51;98793.66;5051427;28;20218;-70
2023/03/16 06:31:50;;;;;;;4.20;1.70;;;;;;;7.79;67.41;98800.53;5049559;28;20250;-70
2023/03/16 06:34:16;;;;;;;2.47;1.90;;;;;;;7.87;67.18;98810.13;5051623;28;20227;-75
2023/03/16 06:36:43;;;;;;;2.03;1.87;;;;;;;7.96;67.26;98811.59;5050240;28;20624;-72
2023/03/16 06:39:10;;;;;;;2.00;1.63;;;;;;;7.92;67.17;98813.00;5050522;28;20246;-70
2023/03/16 06:41:36;;;;;;;2.17;1.60;;;;;;;7.93;66.54;98819.94;5050278;28;20195;-72
2023/03/16 06:44:04;;;;;;;31.50;3.17;;;;;;;7.90;66.60;98826.41;5051072;28;20198;-72
2023/03/16 06:46:32;;;;;;;2.77;1.37;;;;;;;7.93;66.43;98822.56;5050441;28;20208;-72
2023/03/16 06:49:00;;;;;;;5.13;2.10;;;;;;;8.06;66.66;98836.69;5049063;28;20639;-78
2023/03/16 06:51:27;;;;;;;38.70;6.60;;;;;;;7.96;66.94;98835.41;5050347;28;20256;-74
2023/03/16 06:53:54;;;;;;;5.40;4.40;;;;;;;8.04;66.22;98843.19;5051774;28;20664;-71
2023/03/16 06:56:20;;;;;;;5.67;4.80;;;;;;;8.06;65.45;98846.44;5050742;28;20563;-72
2023/03/16 06:58:47;;;;;;;2.13;2.03;;;;;;;8.04;65.78;98836.03;5052156;28;20305;-71
2023/03/16 07:01:14;;;;;;;2.30;2.20;;;;;;;8.05;65.54;98850.09;5051785;28;20597;-71
2023/03/16 07:03:40;;;;;;;40.50;4.53;;;;;;;8.02;65.92;98856.59;5051374;28;20250;-71
2023/03/16 07:06:08;;;;;;;4.00;3.60;;;;;;;8.06;66.26;98865.78;5052389;28;20199;-70
2023/03/16 07:08:35;;;;;;;1.80;1.70;;;;;;;8.05;66.41;98860.66;5051452;28;20255;-71
2023/03/16 07:11:02;;;;;;;3.60;2.33;;;;;;;8.10;65.96;98868.84;5052078;28;20261;-72
2023/03/16 07:13:29;;;;;;;9.60;2.77;;;;;;;8.12;66.10;98866.78;5051880;28;20576;-72
2023/03/16 07:15:56;;;;;;;2.30;2.20;;;;;;;8.14;65.95;98870.91;5052192;28;20195;-72
2023/03/16 07:18:24;;;;;;;7.00;3.00;;;;;;;8.06;65.28;98868.41;5052091;28;20344;-72
2023/03/16 07:20:53;;;;;;;79.37;6.80;;;;;;;8.16;65.15;98874.16;5051853;28;20196;-72
2023/03/16 07:23:23;;;;;;;1.63;1.53;;;;;;;8.01;64.88;98880.59;5052054;28;20196;-72
2023/03/16 07:25:50;;;;;;;9.30;2.63;;;;;;;8.02;65.71;98869.00;5052152;28;20231;-72
2023/03/16 07:28:17;;;;;;;2.57;2.37;;;;;;;8.11;65.40;98881.88;5050886;28;20196;-73
2023/03/16 07:30:45;;;;;;;2.90;2.70;;;;;;;8.24;64.59;98881.13;5051368;28;20567;-72
2023/03/16 07:33:12;;;;;;;2.03;1.80;;;;;;;8.20;63.97;98891.25;5051584;28;20197;-72
2023/03/16 07:35:39;;;;;;;2.10;2.00;;;;;;;8.23;64.44;98888.28;5052015;28;20258;-73
2023/03/16 07:38:05;;;;;;;5.50;2.37;;;;;;;8.31;65.77;98887.28;5051233;28;20232;-76
2023/03/16 07:40:33;;;;;;;6.83;2.53;;;;;;;8.40;65.68;98892.22;5069006;28;20260;-81
2023/03/16 07:43:00;;;;;;;3.93;2.77;;;;;;;8.37;65.11;98892.59;5071853;28;20200;-69
2023/03/16 07:45:27;;;;;;;8.97;2.73;;;;;;;8.38;64.16;98888.13;5069918;28;20246;-75
2023/03/16 07:47:54;;;;;;;8.43;2.50;;;;;;;8.35;63.88;98892.00;5063091;28;20211;-70
2023/03/16 07:50:21;;;;;;;3.90;2.50;;;;;;;8.39;64.48;98884.47;5070889;28;20248;-71
2023/03/16 07:52:47;;;;;;;2.10;2.00;;;;;;;8.42;64.35;98886.72;5062078;28;20548;-73
2023/03/16 07:55:15;;;;;;;11.63;2.50;;;;;;;8.51;64.35;98882.91;5050961;28;20245;-72
2023/03/16 07:57:46;;;;;;;18.13;3.43;;;;;;;8.50;64.32;98886.56;5050676;28;20220;-68
2023/03/16 08:00:14;;;;;;;3.27;2.00;;;;;;;8.49;64.15;98890.22;5030942;28;20256;-68
2023/03/16 08:02:41;;;;;;;9.97;1.93;;;;;;;8.50;64.17;98892.66;5030213;28;20193;-71
2023/03/16 08:05:09;;;;;;;2.57;1.77;;;;;;;8.49;64.59;98891.03;5038217;28;20195;-69
2023/03/16 08:07:36;;;;;;;4.33;2.70;;;;;;;8.62;63.97;98890.28;5050419;28;20203;-71
2023/03/16 08:10:05;;;;;;;11.50;2.60;;;;;;;8.67;63.35;98888.66;5049440;28;20196;-71
2023/03/16 08:12:32;;;;;;;2.50;2.30;;;;;;;8.78;63.51;98903.16;5050235;28;20228;-70
2023/03/16 08:15:00;;;;;;;4.43;3.30;;;;;;;8.84;63.19;98894.41;5053975;28;20196;-70
2023/03/16 08:17:27;;;;;;;10.90;2.40;;;;;;;8.99;62.00;98892.44;5029234;28;20232;-69
2023/03/16 08:19:54;;;;;;;4.43;2.37;;;;;;;9.03;61.47;98899.75;5029016;28;20198;-68
2023/03/16 08:22:20;;;;;;;10.03;2.27;;;;;;;9.16;60.43;98901.63;5030292;28;20263;-69
2023/03/16 08:24:49;;;;;;;6.70;2.47;;;;;;;9.10;59.91;98900.59;5033199;28;20496;-73
2023/03/16 08:27:18;;;;;;;7.97;2.30;;;;;;;9.05;59.65;98886.31;5069156;28;20588;-75
2023/03/16 08:29:45;;;;;;;16.90;2.77;;;;;;;9.21;59.86;98912.44;5068669;28;20894;-73
2023/03/16 08:32:13;;;;;;;10.83;2.30;;;;;;;9.15;59.96;98907.94;5068233;28;20195;-84
2023/03/16 08:34:40;;;;;;;10.27;2.23;;;;;;;9.11;59.12;98901.41;5053902;28;20206;-75
2023/03/16 08:37:08;;;;;;;3.60;2.13;;;;;;;9.30;58.69;98920.00;5048414;28;20232;-71
2023/03/16 08:39:35;;;;;;;3.93;2.70;;;;;;;9.48;59.07;98908.81;5048843;28;20232;-71
2023/03/16 08:42:02;;;;;;;10.93;2.57;;;;;;;9.58;58.35;98919.81;5048691;28;20224;-75
2023/03/16 08:44:29;;;;;;;2.80;1.50;;;;;;;9.67;57.76;98918.56;5048275;28;20208;-80
2023/03/16 08:46:55;;;;;;;5.30;1.53;;;;;;;9.77;57.25;98919.78;5050290;28;20587;-72
2023/03/16 08:49:23;;;;;;;13.63;2.77;;;;;;;9.91;57.01;98915.31;5050150;28;20192;-73
2023/03/16 08:51:50;;;;;;;5.10;1.20;;;;;;;10.00;55.74;98917.53;5049677;28;20553;-76
2023/03/16 08:54:17;;;;;;;2.47;1.63;;;;;;;10.11;56.41;98916.13;5059948;28;20188;-70
2023/03/16 08:56:44;;;;;;;23.10;2.57;;;;;;;10.24;54.93;98921.41;5069603;28;20354;-74
2023/03/16 08:59:10;;;;;;;20.00;2.70;;;;;;;10.28;55.00;98917.31;5062942;28;20758;-71
2023/03/16 09:01:37;;;;;;;11.60;2.17;;;;;;;10.48;54.69;98920.72;5057801;28;20254;-69
2023/03/16 09:04:04;;;;;;;19.80;2.20;;;;;;;10.51;54.43;98922.97;5048589;28;20679;-71
2023/03/16 09:06:33;;;;;;;1.50;1.40;;;;;;;10.54;53.60;98912.75;5038104;28;20623;-71
2023/03/16 09:08:59;;;;;;;9.57;1.40;;;;;;;10.73;53.48;98932.28;5041051;28;20193;-72
2023/03/16 09:11:29;;;;;;;10.83;1.90;;;;;;;10.77;53.62;98930.84;5066966;28;20635;-69
2023/03/16 09:13:57;;;;;;;3.77;1.70;;;;;;;10.82;52.78;98926.53;5064230;28;20193;-71
2023/03/16 09:16:24;;;;;;;11.40;1.90;;;;;;;10.81;53.46;98932.03;5053149;28;20196;-73
2023/03/16 09:18:51;;;;;;;6.43;1.73;;;;;;;10.61;52.94;98913.53;5053015;28;20266;-80
2023/03/16 09:21:18;;;;;;;6.53;1.60;;;;;;;11.04;52.78;98930.50;5054044;28;20196;-74
2023/03/16 09:23:47;;;;;;;2.43;1.47;;;;;;;11.01;51.85;98914.16;5039556;28;20200;-77
2023/03/16 09:26:14;;;;;;;3.83;1.30;;;;;;;10.95;52.27;98915.81;5054688;28;20685;-70
2023/03/16 09:28:42;;;;;;;8.83;1.50;;;;;;;11.11;51.20;98934.97;5053439;28;20237;-73
2023/03/16 09:31:10;;;;;;;5.67;1.57;;;;;;;11.31;50.89;98936.47;5056106;28;20211;-75
2023/03/16 09:33:37;;;;;;;1.60;1.37;;;;;;;11.24;50.81;98934.91;5052424;28;20193;-74
2023/03/16 09:36:04;;;;;;;11.17;1.70;;;;;;;11.33;50.59;98937.09;5054364;28;20202;-73
2023/03/16 09:38:32;;;;;;;33.97;3.50;;;;;;;11.35;49.76;98932.34;5072562;28;20224;-80
2023/03/16 09:41:03;;;;;;;4.70;2.13;;;;;;;11.46;49.65;98939.66;5052701;28;20209;-83
2023/03/16 09:43:58;;;;;;;4.40;3.10;;;;;;;11.18;50.82;98941.88;5051417;28;20673;-76
2023/03/16 09:46:28;;;;;;;2.67;1.53;;;;;;;11.44;50.89;98941.72;5052749;28;20223;-72
2023/03/16 09:48:57;;;;;;;2.73;2.53;;;;;;;11.65;50.08;98928.09;5050012;28;20212;-79
2023/03/16 09:51:35;;;;;;;8.57;1.20;;;;;;;11.75;48.29;98896.50;5050100;28;20249;-72
2023/03/16 09:54:03;;;;;;;2.13;1.23;;;;;;;12.09;47.29;98941.22;5051198;28;20191;-76
2023/03/16 09:56:37;;;;;;;6.77;1.87;;;;;;;11.55;48.72;98938.38;5071474;28;20197;-72
2023/03/16 09:59:10;;;;;;;4.93;1.77;;;;;;;11.80;48.78;98941.09;5058226;28;20237;-73
2023/03/16 10:01:43;;;;;;;1.93;1.10;;;;;;;11.77;47.97;98912.25;5054991;28;20779;-72
2023/03/16 10:04:22;;;;;;;5.00;1.20;;;;;;;12.07;47.67;98943.31;5061014;28;20186;-75
2023/03/16 10:06:58;;;;;;;60.70;5.73;;;;;;;12.07;47.23;98935.31;5069284;28;20187;-69
2023/03/16 10:09:32;;;;;;;7.13;1.40;;;;;;;12.01;47.38;98949.47;5043339;28;20198;-80
2023/03/16 10:12:02;;;;;;;5.43;1.57;;;;;;;11.95;46.73;98925.59;5032115;28;20221;-71
2023/03/16 10:14:37;;;;;;;17.50;2.80;;;;;;;12.17;47.13;98940.16;5032015;28;20670;-69
2023/03/16 10:17:11;;;;;;;2.77;1.50;;;;;;;12.14;47.05;98949.38;5057914;28;20182;-75
2023/03/16 10:19:42;;;;;;;2.97;1.30;;;;;;;12.01;46.63;98904.22;5050112;28;20746;-72
2023/03/16 10:22:19;;;;;;;2.63;1.60;;;;;;;12.24;46.60;98917.72;5049616;28;20201;-73
2023/03/16 10:24:57;;;;;;;2.40;1.10;;;;;;;12.56;46.03;98953.88;5050246;28;20191;-72
2023/03/16 10:27:30;;;;;;;14.47;2.23;;;;;;;12.76;45.30;98948.31;5050832;28;20647;-73
2023/03/16 10:29:57;;;;;;;3.03;1.20;;;;;;;12.57;45.34;98944.81;5051698;28;20186;-74
2023/03/16 10:32:27;;;;;;;7.87;1.20;;;;;;;12.50;45.40;98941.41;5051159;28;20720;-75
2023/03/16 10:35:00;;;;;;;1.97;1.20;;;;;;;12.53;45.40;98926.88;5051094;28;20250;-74
2023/03/16 10:37:30;;;;;;;42.17;3.60;;;;;;;12.57;45.23;98934.16;5051694;28;20240;-77
2023/03/16 10:39:59;;;;;;;2.23;2.07;;;;;;;12.35;45.03;98919.69;5051895;28;20692;-71
2023/03/16 10:42:28;;;;;;;6.83;1.20;;;;;;;12.30;45.89;98943.50;5052576;28;20203;-72
2023/03/16 10:44:58;;;;;;;34.97;3.00;;;;;;;12.30;45.94;98948.81;5051483;28;20203;-72
2023/03/16 10:47:29;;;;;;;2.50;1.57;;;;;;;11.89;46.60;98932.63;5051389;28;20208;-73
2023/03/16 10:49:56;;;;;;;14.33;1.97;;;;;;;12.10;46.40;98932.22;5050887;28;20664;-73
2023/03/16 10:52:30;;;;;;;1.10;1.10;;;;;;;12.00;45.91;98907.94;5050734;28;20198;-81
2023/03/16 10:55:00;;;;;;;5.67;1.37;;;;;;;12.17;45.60;98911.66;5051414;28;20188;-75
2023/03/16 10:57:32;;;;;;;6.43;1.43;;;;;;;12.52;45.44;98947.34;5055429;28;20210;-71
2023/03/16 11:00:06;;;;;;;2.40;1.27;;;;;;;12.80;44.40;98941.50;5050692;28;20254;-72
2023/03/16 11:02:34;;;;;;;9.37;2.13;;;;;;;12.66;44.70;98938.16;5051418;28;20269;-71
2023/03/16 11:05:12;;;;;;;6.57;1.37;;;;;;;12.62;45.04;98952.16;5050659;28;20605;-73
2023/03/16 11:07:39;;;;;;;2.77;1.37;;;;;;;12.75;44.33;98936.03;5051124;28;20288;-73
2023/03/16 11:10:14;;;;;;;9.73;1.57;;;;;;;12.40;44.60;98898.50;5051174;28;20199;-75
2023/03/16 11:12:42;;;;;;;3.57;1.80;;;;;;;12.48;45.22;98935.50;5051205;28;20669;-73
2023/03/16 11:15:13;;;;;;;6.47;1.30;;;;;;;12.48;45.09;98937.34;5051182;28;20243;-72
2023/03/16 11:17:44;;;;;;;14.90;1.70;;;;;;;12.37;45.05;98922.91;5051745;28;20233;-73
2023/03/16 11:20:16;;;;;;;7.47;1.87;;;;;;;12.25;45.50;98932.66;5051011;28;20672;-72
2023/03/16 11:22:46;;;;;;;4.00;1.83;;;;;;;11.95;46.03;98912.28;5050148;28;20242;-75
2023/03/16 11:25:19;;;;;;;2.90;1.60;;;;;;;12.20;46.22;98913.88;5049897;28;20199;-76
2023/03/16 11:27:51;;;;;;;3.03;1.40;;;;;;;12.18;45.89;98929.28;5049773;28;20186;-77
2023/03/16 11:30:23;;;;;;;1.70;1.60;;;;;;;12.26;46.50;98931.66;5050912;28;20189;-73
2023/03/16 11:32:52;;;;;;;10.20;2.20;;;;;;;12.21;46.45;98939.47;5050781;28;20188;-74
2023/03/16 11:35:23;;;;;;;3.27;1.70;;;;;;;12.33;46.15;98919.06;5049889;28;20191;-72
2023/03/16 11:38:08;;;;;;;7.27;2.07;;;;;;;12.02;46.68;98929.84;5049885;28;20214;-73
2023/03/16 11:40:49;;;;;;;9.70;2.57;;;;;;;12.18;46.32;98918.63;5051029;28;20199;-81
2023/03/16 11:43:45;;;;;;;1.77;1.67;;;;;;;12.06;46.28;98893.75;5050984;28;20191;-74